Time;durP1;ratioP1;P1;durP2;ratioP2;P2;SDS_P1;SDS_P2;PMS_P1;PMS_P2;Temp;Humidity;BMP_temperature;BMP_pressure;BME280_temperature;BME280_humidity;BME280_pressure;Samples;Min_cycle;Max_cycle;Signal;HPM_P1;HPM_P2
2023/02/07 00:00:50;;;;;;;6.10;5.50;;;;;;;3.84;72.71;104190.16;6052644;29;20237;-73
2023/02/07 00:04:12;;;;;;;5.07;4.60;;;;;;;3.55;74.99;104182.34;6056562;29;20325;-73
2023/02/07 00:07:35;;;;;;;8.07;4.37;;;;;;;3.94;73.63;104170.53;6038507;29;20315;-74
2023/02/07 00:10:56;;;;;;;5.10;4.73;;;;;;;3.89;73.95;104177.66;6048071;29;20229;-74
2023/02/07 00:14:16;;;;;;;6.60;5.87;;;;;;;3.45;75.33;104182.44;6060777;29;20238;-74
2023/02/07 00:17:38;;;;;;;7.33;5.83;;;;;;;3.86;74.41;104191.03;6037304;29;20248;-73
2023/02/07 00:20:59;;;;;;;6.73;5.00;;;;;;;3.55;73.91;104194.81;6032051;29;20230;-73
2023/02/07 00:24:22;;;;;;;7.70;4.73;;;;;;;3.65;74.46;104202.72;6053402;29;20320;-73
2023/02/07 00:27:42;;;;;;;5.23;4.77;;;;;;;3.44;75.01;104199.34;6059223;29;20232;-73
2023/02/07 00:31:05;;;;;;;8.53;5.70;;;;;;;3.57;75.62;104191.25;6056218;29;20631;-74
2023/02/07 00:34:26;;;;;;;4.50;4.07;;;;;;;3.44;75.79;104194.00;6057142;29;20233;-73
2023/02/07 00:37:48;;;;;;;7.77;6.23;;;;;;;3.32;75.23;104194.09;6055092;29;20327;-75
2023/02/07 00:41:13;;;;;;;6.27;5.67;;;;;;;3.34;75.69;104184.28;6037063;29;20246;-74
2023/02/07 00:44:34;;;;;;;7.43;4.93;;;;;;;2.66;78.88;104196.13;6059514;29;20241;-74
2023/02/07 00:47:56;;;;;;;6.90;4.57;;;;;;;2.99;78.18;104185.34;6069455;29;20256;-73
2023/02/07 00:51:17;;;;;;;6.00;5.33;;;;;;;3.25;76.98;104182.56;6042851;29;20249;-75
2023/02/07 00:54:39;;;;;;;5.57;4.93;;;;;;;3.06;77.09;104186.22;6058258;29;20358;-73
2023/02/07 00:58:01;;;;;;;4.83;4.17;;;;;;;2.69;78.99;104188.09;6046567;29;20323;-73
2023/02/07 01:01:24;;;;;;;16.07;7.07;;;;;;;3.14;77.43;104171.06;6052059;29;20233;-73
2023/02/07 01:04:45;;;;;;;8.03;5.83;;;;;;;3.37;76.40;104157.59;6055406;29;20237;-74
2023/02/07 01:08:06;;;;;;;9.33;7.03;;;;;;;3.17;76.51;104168.41;6058807;29;20232;-73
2023/02/07 01:11:28;;;;;;;6.07;5.47;;;;;;;2.74;77.52;104169.44;6059436;29;20224;-73
2023/02/07 01:14:51;;;;;;;6.10;5.60;;;;;;;3.19;76.93;104175.47;6052020;29;20586;-73
2023/02/07 01:18:12;;;;;;;6.20;5.60;;;;;;;3.36;76.21;104169.16;6064629;29;20244;-73
2023/02/07 01:21:34;;;;;;;6.47;4.43;;;;;;;3.25;76.12;104186.09;6047007;29;20253;-73
2023/02/07 01:24:55;;;;;;;7.27;5.77;;;;;;;3.49;75.02;104166.41;6072433;29;20238;-73
2023/02/07 01:28:16;;;;;;;9.90;6.90;;;;;;;3.10;74.91;104177.31;6053293;29;20411;-73
2023/02/07 01:31:41;;;;;;;4.63;4.27;;;;;;;3.50;74.60;104165.53;6044361;29;20971;-73
2023/02/07 01:35:02;;;;;;;8.37;5.93;;;;;;;3.70;73.71;104165.38;6081070;29;20241;-73
2023/02/07 01:38:23;;;;;;;7.33;6.67;;;;;;;3.61;73.14;104160.97;6067464;29;20233;-75
2023/02/07 01:41:44;;;;;;;6.20;5.43;;;;;;;3.48;74.14;104155.75;6042540;29;20242;-74
2023/02/07 01:45:15;;;;;;;7.43;5.10;;;;;;;3.45;74.36;104148.66;6041651;29;20238;-73
2023/02/07 01:48:38;;;;;;;6.93;5.20;;;;;;;3.49;73.78;104147.72;6066550;29;20307;-74
2023/02/07 01:52:02;;;;;;;9.17;6.20;;;;;;;3.10;75.20;104140.88;6039816;29;20238;-73
2023/02/07 01:55:29;;;;;;;4.20;3.80;;;;;;;3.34;74.50;104134.50;6064745;29;20230;-73
2023/02/07 01:58:50;;;;;;;4.73;4.33;;;;;;;3.06;76.13;104144.47;6057316;29;20237;-75
2023/02/07 02:02:13;;;;;;;5.87;5.27;;;;;;;3.39;74.43;104151.38;6065850;29;20264;-75
2023/02/07 02:05:37;;;;;;;8.07;6.97;;;;;;;3.62;73.42;104161.88;6059200;29;20241;-73
2023/02/07 02:08:59;;;;;;;5.97;5.40;;;;;;;3.73;72.88;104152.00;6067352;29;20294;-74
2023/02/07 02:12:34;;;;;;;5.43;4.33;;;;;;;3.82;72.23;104158.16;6071448;29;20256;-74
2023/02/07 02:16:03;;;;;;;5.97;4.63;;;;;;;3.93;70.95;104163.41;6070784;29;20233;-75
2023/02/07 02:20:16;;;;;;;5.00;4.40;;;;;;;3.87;71.19;104169.69;6061562;29;20673;-73
2023/02/07 02:23:49;;;;;;;5.53;5.03;;;;;;;3.70;71.84;104165.38;6064728;29;20236;-73
2023/02/07 02:27:16;;;;;;;9.30;4.73;;;;;;;3.75;71.30;104156.44;6062491;29;20232;-74
2023/02/07 02:31:05;;;;;;;4.47;4.07;;;;;;;3.99;70.46;104156.22;6058266;29;20229;-73
2023/02/07 02:34:36;;;;;;;5.07;4.17;;;;;;;3.87;70.97;104150.13;6071408;29;20318;-73
2023/02/07 02:38:09;;;;;;;8.67;5.23;;;;;;;3.99;69.72;104150.88;6066333;29;20631;-74
2023/02/07 02:41:37;;;;;;;6.07;4.63;;;;;;;3.82;70.40;104144.81;6049098;29;20245;-74
2023/02/07 02:45:07;;;;;;;6.47;3.63;;;;;;;3.29;72.20;104144.31;6060454;29;20233;-73
2023/02/07 02:48:31;;;;;;;6.23;5.53;;;;;;;2.61;73.86;104147.31;6048111;29;20393;-73
2023/02/07 02:51:53;;;;;;;9.17;5.60;;;;;;;2.16;76.50;104143.00;6050994;29;20286;-73
2023/02/07 02:55:16;;;;;;;5.20;4.70;;;;;;;1.77;78.82;104147.44;6065974;29;20242;-74
2023/02/07 02:58:51;;;;;;;8.07;5.43;;;;;;;2.53;76.67;104138.44;6064527;29;20240;-74
2023/02/07 03:02:22;;;;;;;4.87;4.27;;;;;;;2.42;76.36;104145.56;6065601;29;20236;-74
2023/02/07 03:05:55;;;;;;;10.90;6.00;;;;;;;2.47;75.74;104126.94;6063137;29;20229;-74
2023/02/07 03:09:25;;;;;;;6.87;4.63;;;;;;;2.89;74.71;104135.66;6052656;29;20238;-73
2023/02/07 03:12:54;;;;;;;6.40;4.33;;;;;;;2.96;74.37;104140.03;6033590;29;20351;-73
2023/02/07 03:16:20;;;;;;;8.97;5.90;;;;;;;2.57;75.34;104132.22;6036724;29;20695;-73
2023/02/07 03:19:45;;;;;;;7.47;5.23;;;;;;;2.07;76.60;104134.13;6047946;29;20238;-73
2023/02/07 03:23:10;;;;;;;4.63;4.23;;;;;;;2.51;75.38;104126.03;6072668;29;20576;-73
2023/02/07 03:26:33;;;;;;;5.60;5.10;;;;;;;2.08;77.24;104109.28;6050131;29;20230;-73
2023/02/07 03:29:58;;;;;;;6.60;4.63;;;;;;;1.86;78.59;104100.44;6033669;29;20230;-73
2023/02/07 03:33:20;;;;;;;5.70;4.00;;;;;;;2.16;76.96;104108.41;6049087;29;20498;-74
2023/02/07 03:36:48;;;;;;;5.13;4.40;;;;;;;1.93;78.20;104104.88;6030073;29;20550;-73
2023/02/07 03:40:11;;;;;;;7.43;4.93;;;;;;;2.50;75.86;104093.22;6032788;29;20814;-73
2023/02/07 03:43:35;;;;;;;5.83;4.33;;;;;;;2.05;76.71;104083.56;6052579;29;20244;-73
2023/02/07 03:46:57;;;;;;;6.27;4.87;;;;;;;2.64;75.68;104088.72;6040340;29;20624;-72
2023/02/07 03:50:18;;;;;;;4.70;4.30;;;;;;;2.76;74.19;104080.66;6063957;29;20264;-74
2023/02/07 03:53:39;;;;;;;5.70;4.67;;;;;;;3.15;72.84;104083.09;6055997;29;20241;-74
2023/02/07 03:57:01;;;;;;;5.47;4.57;;;;;;;2.85;73.41;104088.63;6042220;29;20244;-73
2023/02/07 04:00:24;;;;;;;4.83;4.07;;;;;;;2.89;72.95;104082.38;6057827;29;20234;-74
2023/02/07 04:03:45;;;;;;;5.50;5.00;;;;;;;2.42;74.73;104087.00;6059096;29;20260;-73
2023/02/07 04:07:06;;;;;;;6.13;5.17;;;;;;;2.87;73.83;104080.59;6049934;29;20241;-74
2023/02/07 04:10:27;;;;;;;6.57;4.37;;;;;;;2.93;73.10;104086.78;6041944;29;20237;-72
2023/02/07 04:13:48;;;;;;;9.17;6.17;;;;;;;3.04;72.15;104092.97;6067688;29;20602;-73
2023/02/07 04:17:10;;;;;;;7.73;4.93;;;;;;;3.02;71.92;104097.41;6035280;29;20251;-73
2023/02/07 04:20:31;;;;;;;5.70;5.20;;;;;;;3.01;71.98;104094.72;6054496;29;20245;-73
2023/02/07 04:23:52;;;;;;;6.03;5.20;;;;;;;2.83;72.86;104097.50;6062078;29;20248;-74
2023/02/07 04:27:13;;;;;;;6.87;6.03;;;;;;;2.35;73.95;104096.81;6052679;29;20237;-74
2023/02/07 04:30:34;;;;;;;5.13;4.63;;;;;;;1.94;76.60;104092.47;6065661;29;20259;-74
2023/02/07 04:33:56;;;;;;;4.73;4.00;;;;;;;1.73;77.42;104089.84;6052582;29;20229;-74
2023/02/07 04:37:17;;;;;;;5.90;3.97;;;;;;;1.89;76.36;104091.59;6058000;29;20976;-73
2023/02/07 04:40:39;;;;;;;4.57;4.03;;;;;;;1.95;76.58;104096.91;6064232;29;20241;-73
2023/02/07 04:43:59;;;;;;;9.37;5.63;;;;;;;2.12;75.64;104093.34;6056058;29;20237;-73
2023/02/07 04:47:21;;;;;;;7.03;5.27;;;;;;;2.00;75.67;104089.81;6045995;29;22088;-73
2023/02/07 04:50:43;;;;;;;5.30;4.77;;;;;;;1.88;76.92;104090.69;6050760;29;20225;-73
2023/02/07 04:54:06;;;;;;;9.40;4.80;;;;;;;1.90;76.57;104090.72;6054174;29;20315;-73
2023/02/07 04:57:27;;;;;;;6.87;4.93;;;;;;;2.31;74.96;104095.06;6059629;29;20884;-73
2023/02/07 05:00:48;;;;;;;7.20;5.33;;;;;;;2.54;74.21;104094.97;6050624;29;20229;-74
2023/02/07 05:04:09;;;;;;;5.10;4.70;;;;;;;2.72;72.96;104104.66;6059021;29;20245;-74
2023/02/07 05:07:31;;;;;;;7.80;4.37;;;;;;;2.77;72.67;104097.53;6044765;29;20233;-73
2023/02/07 05:10:53;;;;;;;5.30;4.03;;;;;;;2.77;71.99;104106.41;6043419;29;20245;-74
2023/02/07 05:14:14;;;;;;;8.23;5.83;;;;;;;2.71;72.39;104117.06;6069284;29;20245;-74
2023/02/07 05:17:37;;;;;;;6.23;4.80;;;;;;;2.49;73.29;104107.41;6055322;29;20232;-73
2023/02/07 05:20:59;;;;;;;7.00;5.50;;;;;;;2.74;72.73;104117.06;6037663;29;20265;-73
2023/02/07 05:24:21;;;;;;;6.53;4.47;;;;;;;2.83;72.18;104122.38;6063694;29;20260;-73
2023/02/07 05:27:41;;;;;;;6.50;5.77;;;;;;;2.95;70.55;104134.72;6045970;29;20228;-73
2023/02/07 05:31:02;;;;;;;6.17;4.60;;;;;;;2.95;70.65;104130.28;6053130;29;20242;-73
2023/02/07 05:34:23;;;;;;;6.27;4.13;;;;;;;2.66;71.21;104131.31;6030615;29;21064;-74
2023/02/07 05:37:44;;;;;;;10.83;5.63;;;;;;;2.76;71.00;104130.38;6050460;29;20236;-73
2023/02/07 05:41:07;;;;;;;4.63;3.53;;;;;;;2.73;71.83;104125.09;6042558;29;20257;-74
2023/02/07 05:44:28;;;;;;;8.57;4.47;;;;;;;2.68;71.76;104134.84;6068072;29;20310;-73
2023/02/07 05:47:49;;;;;;;6.77;4.93;;;;;;;2.77;71.70;104141.03;6042672;29;20232;-70
2023/02/07 05:51:10;;;;;;;6.83;5.07;;;;;;;2.79;70.86;104154.34;6044002;29;20553;-71
2023/02/07 05:54:31;;;;;;;5.03;4.27;;;;;;;2.66;71.62;104156.16;6058995;29;20233;-72
2023/02/07 05:57:53;;;;;;;4.50;3.97;;;;;;;3.08;72.10;104155.09;6050009;29;20233;-72
2023/02/07 06:01:14;;;;;;;7.23;4.43;;;;;;;3.00;70.38;104159.59;6057330;29;22245;-71
2023/02/07 06:04:35;;;;;;;6.03;4.63;;;;;;;2.81;71.25;104158.78;6066396;29;20229;-71
2023/02/07 06:07:56;;;;;;;7.30;4.80;;;;;;;2.77;71.00;104157.03;6063988;29;20241;-71
2023/02/07 06:11:17;;;;;;;5.93;5.27;;;;;;;2.67;70.98;104149.94;6058425;29;20675;-71
2023/02/07 06:14:40;;;;;;;8.13;6.30;;;;;;;2.72;76.47;104147.25;6067026;29;20628;-70
2023/02/07 06:18:00;;;;;;;6.57;5.13;;;;;;;2.78;72.10;104161.44;6065051;29;20228;-71
2023/02/07 06:21:21;;;;;;;9.67;6.13;;;;;;;2.85;71.55;104165.88;6055590;29;20242;-70
2023/02/07 06:24:42;;;;;;;7.63;4.80;;;;;;;2.45;72.23;104164.22;6068539;29;20233;-72
2023/02/07 06:28:03;;;;;;;8.37;5.67;;;;;;;2.63;71.92;104164.16;6065582;29;20232;-70
2023/02/07 06:31:26;;;;;;;5.50;5.00;;;;;;;2.55;71.52;104165.97;6063786;29;20280;-71
2023/02/07 06:34:47;;;;;;;8.50;5.50;;;;;;;2.65;71.34;104169.50;6057778;29;20225;-71
2023/02/07 06:38:08;;;;;;;5.67;4.87;;;;;;;2.79;71.17;104176.56;6061709;29;20225;-71
2023/02/07 06:41:29;;;;;;;9.83;5.37;;;;;;;2.80;70.85;104178.31;6054926;29;20241;-71
2023/02/07 06:44:50;;;;;;;4.97;4.50;;;;;;;2.79;70.76;104173.88;6056215;29;20225;-71
2023/02/07 06:48:12;;;;;;;9.43;5.70;;;;;;;2.59;70.72;104177.50;6063499;29;20248;-71
2023/02/07 06:51:33;;;;;;;9.07;6.37;;;;;;;1.79;73.67;104191.78;6067649;29;20240;-71
2023/02/07 06:54:54;;;;;;;4.83;4.47;;;;;;;1.99;74.00;104186.44;6039545;29;20616;-71
2023/02/07 06:58:15;;;;;;;7.37;6.10;;;;;;;1.89;74.08;104190.00;6067272;29;20232;-71
2023/02/07 07:01:37;;;;;;;5.77;5.20;;;;;;;2.08;74.09;104190.00;6068073;29;20880;-71
2023/02/07 07:05:00;;;;;;;8.17;7.10;;;;;;;2.24;72.71;104183.78;6057255;29;20226;-71
2023/02/07 07:08:21;;;;;;;8.83;6.03;;;;;;;2.58;71.61;104191.69;6058975;29;20319;-71
2023/02/07 07:11:43;;;;;;;5.77;5.10;;;;;;;2.67;70.85;104192.53;6062329;29;20237;-71
2023/02/07 07:15:04;;;;;;;6.87;5.97;;;;;;;2.48;71.56;104196.16;6082988;29;20245;-71
2023/02/07 07:18:25;;;;;;;5.63;5.07;;;;;;;2.83;70.32;104194.28;6068813;29;20233;-72
2023/02/07 07:21:48;;;;;;;6.83;4.93;;;;;;;2.78;70.35;104206.72;6042872;29;20244;-71
2023/02/07 07:25:09;;;;;;;10.33;5.57;;;;;;;2.71;70.51;104201.44;6060553;29;21005;-71
2023/02/07 07:28:29;;;;;;;6.67;5.97;;;;;;;2.75;70.57;104198.78;6062133;29;20244;-70
2023/02/07 07:31:50;;;;;;;10.90;6.67;;;;;;;2.89;70.04;104202.25;6032918;29;20783;-72
2023/02/07 07:35:11;;;;;;;6.47;5.70;;;;;;;2.93;69.87;104198.69;6065747;29;20324;-71
2023/02/07 07:38:35;;;;;;;10.90;7.30;;;;;;;2.97;69.89;104199.56;6062193;29;20259;-71
2023/02/07 07:41:56;;;;;;;6.00;5.37;;;;;;;2.38;71.46;104203.25;6058650;29;20233;-72
2023/02/07 07:45:40;;;;;;;5.70;5.10;;;;;;;2.91;70.27;104199.59;6073972;29;20380;-71
2023/02/07 07:49:01;;;;;;;8.13;5.83;;;;;;;2.63;69.91;104189.94;6068830;29;20229;-69
2023/02/07 07:52:22;;;;;;;7.07;5.90;;;;;;;2.68;70.41;104207.66;6039983;29;20232;-71
2023/02/07 07:55:49;;;;;;;7.77;6.20;;;;;;;2.47;71.53;104194.38;6061487;29;20230;-70
2023/02/07 07:59:10;;;;;;;5.90;5.10;;;;;;;2.75;70.47;104197.88;6068155;29;20237;-70
2023/02/07 08:02:31;;;;;;;9.00;6.57;;;;;;;2.74;70.44;104194.31;6045225;29;20363;-71
2023/02/07 08:05:52;;;;;;;7.33;6.57;;;;;;;3.07;69.85;104198.63;6054548;29;21188;-71
2023/02/07 08:09:13;;;;;;;8.23;6.33;;;;;;;3.17;69.03;104193.25;6069833;29;20895;-71
2023/02/07 08:12:35;;;;;;;12.43;7.57;;;;;;;2.49;70.41;104202.34;6060501;29;20228;-72
2023/02/07 08:15:56;;;;;;;6.63;5.97;;;;;;;2.49;71.00;104208.56;6053610;29;22031;-71
2023/02/07 08:19:17;;;;;;;8.57;6.70;;;;;;;2.82;70.73;104208.50;6055354;29;20821;-72
2023/02/07 08:22:38;;;;;;;11.27;7.17;;;;;;;2.93;69.57;104195.13;6054825;29;20236;-71
2023/02/07 08:25:59;;;;;;;7.37;5.93;;;;;;;1.92;72.59;104190.00;6041374;29;20258;-72
2023/02/07 08:29:23;;;;;;;8.23;5.63;;;;;;;2.23;71.93;104187.31;6051949;29;20234;-71
2023/02/07 08:32:44;;;;;;;7.43;6.13;;;;;;;2.80;70.98;104188.97;6048672;29;20240;-71
2023/02/07 08:36:08;;;;;;;8.33;6.87;;;;;;;2.46;71.56;104187.31;6045506;29;20307;-72
2023/02/07 08:39:29;;;;;;;8.67;5.87;;;;;;;2.60;71.60;104188.16;6058687;29;20277;-71
2023/02/07 08:42:50;;;;;;;11.17;7.00;;;;;;;2.73;71.23;104183.69;6044332;29;20237;-71
2023/02/07 08:46:12;;;;;;;8.93;6.00;;;;;;;2.98;70.53;104186.22;6045980;29;20688;-71
2023/02/07 08:49:33;;;;;;;7.47;6.40;;;;;;;1.87;74.52;104187.34;6060452;29;20230;-72
2023/02/07 08:52:54;;;;;;;15.53;6.40;;;;;;;2.38;72.61;104174.00;6055881;29;20241;-72
2023/02/07 08:56:15;;;;;;;5.87;5.30;;;;;;;1.62;75.00;104177.56;6060945;29;20264;-72
2023/02/07 08:59:36;;;;;;;9.20;7.20;;;;;;;2.08;74.00;104182.03;6063992;29;20242;-72
2023/02/07 09:02:58;;;;;;;9.37;6.67;;;;;;;1.93;75.62;104192.66;6062985;29;20252;-72
2023/02/07 09:06:19;;;;;;;9.50;6.70;;;;;;;2.49;72.63;104189.03;6066360;29;20234;-72
2023/02/07 09:09:40;;;;;;;11.37;8.20;;;;;;;3.83;67.89;104189.28;6070405;29;20217;-72
2023/02/07 09:13:01;;;;;;;8.07;6.97;;;;;;;7.25;56.11;104177.94;6066701;29;20806;-71
2023/02/07 09:16:23;;;;;;;7.70;6.13;;;;;;;9.22;48.54;104170.06;6052484;29;20234;-71
2023/02/07 09:19:45;;;;;;;7.57;4.77;;;;;;;10.86;43.83;104175.22;6073716;29;20436;-72
2023/02/07 09:23:18;;;;;;;6.70;4.23;;;;;;;11.17;42.55;104173.13;6070853;29;20264;-72
2023/02/07 09:26:38;;;;;;;8.13;6.33;;;;;;;12.07;40.78;104175.78;6064070;29;20253;-72
2023/02/07 09:29:59;;;;;;;8.07;4.70;;;;;;;11.37;41.63;104180.44;6059816;29;20238;-72
2023/02/07 09:33:22;;;;;;;5.83;5.27;;;;;;;9.87;43.76;104187.69;6057027;29;20241;-71
2023/02/07 09:36:44;;;;;;;6.67;5.40;;;;;;;12.37;40.95;104182.56;6045437;29;20329;-71
2023/02/07 09:40:07;;;;;;;5.73;5.03;;;;;;;11.98;39.17;104184.25;6067873;29;20271;-71
2023/02/07 09:43:35;;;;;;;8.30;5.87;;;;;;;11.34;40.42;104182.38;6062254;29;20221;-71
2023/02/07 09:47:01;;;;;;;7.23;5.43;;;;;;;11.89;40.46;104172.00;6045478;29;20260;-71
2023/02/07 09:50:27;;;;;;;5.87;5.20;;;;;;;11.68;41.32;104185.53;6058929;29;20258;-72
2023/02/07 09:53:54;;;;;;;7.50;6.70;;;;;;;9.98;43.15;104181.94;6068166;29;20607;-72
2023/02/07 09:57:21;;;;;;;5.23;4.70;;;;;;;10.65;43.88;104185.91;6056768;29;20624;-72
2023/02/07 10:00:46;;;;;;;6.43;5.17;;;;;;;8.44;46.40;104194.72;6054125;29;20241;-72
2023/02/07 10:04:23;;;;;;;7.67;5.77;;;;;;;7.35;52.08;104213.47;6049491;29;20321;-71
2023/02/07 10:07:44;;;;;;;8.07;7.27;;;;;;;9.01;48.73;104200.28;6059726;29;20240;-71
2023/02/07 10:11:18;;;;;;;6.80;5.27;;;;;;;12.08;41.72;104188.34;6070782;29;20328;-71
2023/02/07 10:14:57;;;;;;;9.60;5.77;;;;;;;12.43;39.65;104193.13;6051390;29;20233;-71
2023/02/07 10:18:32;;;;;;;8.80;5.87;;;;;;;10.32;42.89;104190.69;6049081;29;20236;-71
2023/02/07 10:21:59;;;;;;;6.87;6.17;;;;;;;8.56;46.81;104200.66;6059433;29;20320;-71
2023/02/07 10:25:34;;;;;;;8.07;5.63;;;;;;;9.79;46.60;104199.63;6067975;29;20240;-70
2023/02/07 10:29:27;;;;;;;9.90;6.43;;;;;;;10.54;43.45;104180.00;6069254;29;20319;-71
2023/02/07 10:32:48;;;;;;;9.37;6.30;;;;;;;8.88;47.03;104183.63;6060079;29;21072;-72
2023/02/07 10:36:14;;;;;;;11.73;9.00;;;;;;;6.99;52.96;104201.72;6070966;29;20319;-71
2023/02/07 10:39:41;;;;;;;12.67;8.17;;;;;;;6.32;54.31;104187.88;6070035;29;20257;-70
2023/02/07 10:43:06;;;;;;;14.77;8.70;;;;;;;6.42;55.19;104190.31;6072847;29;20247;-70
2023/02/07 10:46:29;;;;;;;9.57;7.57;;;;;;;5.12;59.76;104188.81;6060519;29;20236;-71
2023/02/07 10:49:53;;;;;;;12.90;7.90;;;;;;;5.27;59.96;104182.38;6070331;29;20376;-71
2023/02/07 10:53:45;;;;;;;11.83;7.40;;;;;;;5.15;60.91;104190.56;6068126;29;20255;-71
2023/02/07 10:57:18;;;;;;;9.00;8.07;;;;;;;5.25;61.53;104190.44;6044735;29;20616;-70
2023/02/07 11:00:40;;;;;;;11.70;8.23;;;;;;;7.14;56.28;104182.63;6052691;29;20233;-71
2023/02/07 11:04:21;;;;;;;9.37;7.70;;;;;;;6.13;56.58;104181.94;6052201;29;20234;-70
2023/02/07 11:07:56;;;;;;;9.80;8.57;;;;;;;5.70;58.24;104172.81;6054037;29;20233;-70
2023/02/07 11:11:27;;;;;;;10.70;7.80;;;;;;;4.52;63.36;104182.41;6036589;29;20581;-70
2023/02/07 11:15:01;;;;;;;7.40;6.70;;;;;;;3.83;67.02;104186.63;6055173;29;20267;-70
2023/02/07 11:18:39;;;;;;;10.97;8.83;;;;;;;6.12;61.46;104173.94;6076072;29;20232;-70
2023/02/07 11:22:10;;;;;;;11.67;8.70;;;;;;;7.53;53.46;104169.25;6049167;29;20619;-70
2023/02/07 11:25:36;;;;;;;12.97;9.63;;;;;;;6.55;57.23;104166.00;6073518;29;20229;-71
2023/02/07 11:29:05;;;;;;;11.10;7.27;;;;;;;12.49;45.08;104125.22;6069229;29;21259;-71
2023/02/07 11:32:27;;;;;;;13.03;9.10;;;;;;;10.02;45.44;104141.34;6044741;29;20235;-71
2023/02/07 11:36:13;;;;;;;12.43;8.80;;;;;;;7.71;51.85;104137.47;6060479;29;20239;-71
2023/02/07 11:39:36;;;;;;;13.33;9.50;;;;;;;8.60;50.47;104134.22;6060373;29;20262;-71
2023/02/07 11:43:00;;;;;;;11.43;8.53;;;;;;;6.86;55.19;104134.97;6048369;29;20243;-72
2023/02/07 11:46:24;;;;;;;12.20;10.90;;;;;;;7.38;54.57;104132.03;6043491;29;20233;-71
2023/02/07 11:49:49;;;;;;;11.97;9.67;;;;;;;9.01;50.52;104119.56;6072975;29;20229;-71
2023/02/07 11:53:23;;;;;;;11.07;8.33;;;;;;;10.44;46.46;104115.63;6060564;29;20240;-71
2023/02/07 11:56:52;;;;;;;10.93;8.43;;;;;;;13.51;40.49;104107.72;6042135;29;20238;-71
2023/02/07 12:00:22;;;;;;;9.20;8.20;;;;;;;15.32;36.79;104111.53;6055210;29;20536;-71
2023/02/07 12:03:47;;;;;;;9.53;8.57;;;;;;;13.57;38.60;104110.13;6060875;29;22647;-73
2023/02/07 12:07:14;;;;;;;13.20;9.30;;;;;;;11.92;42.96;104117.81;6052852;29;20308;-72
2023/02/07 12:10:39;;;;;;;15.63;9.40;;;;;;;14.81;38.27;104109.03;6072103;29;20519;-72
2023/02/07 12:14:08;;;;;;;12.70;8.90;;;;;;;17.10;33.15;104100.56;6070795;29;20233;-71
2023/02/07 12:17:36;;;;;;;13.30;10.23;;;;;;;14.34;37.07;104106.16;6052504;29;20240;-72
2023/02/07 12:21:02;;;;;;;14.67;10.30;;;;;;;16.38;34.16;104092.44;6064930;29;20233;-71
2023/02/07 12:24:30;;;;;;;10.53;9.17;;;;;;;18.33;31.60;104088.47;6069039;29;20240;-72
2023/02/07 12:27:56;;;;;;;9.93;7.67;;;;;;;19.90;28.76;104070.38;6047565;29;20236;-72
2023/02/07 12:31:25;;;;;;;14.60;9.90;;;;;;;15.31;34.25;104073.56;6050481;29;20242;-72
2023/02/07 12:34:53;;;;;;;12.17;10.37;;;;;;;13.76;37.88;104080.25;6047931;29;20230;-71
2023/02/07 12:38:20;;;;;;;14.03;10.73;;;;;;;16.34;33.94;104079.09;6071884;29;20259;-71
2023/02/07 12:41:48;;;;;;;11.10;9.00;;;;;;;16.07;34.20;104075.34;6055789;29;20328;-72
2023/02/07 12:45:15;;;;;;;11.83;9.73;;;;;;;18.14;31.10;104070.75;6061877;29;20639;-71
2023/02/07 12:48:55;;;;;;;10.70;9.40;;;;;;;17.33;31.71;104067.19;6055029;29;20233;-72
2023/02/07 12:52:33;;;;;;;11.73;7.13;;;;;;;16.21;33.72;104061.78;6060521;29;20264;-72
2023/02/07 12:56:04;;;;;;;13.70;10.03;;;;;;;15.53;34.98;104064.09;6049244;29;20230;-72
2023/02/07 12:59:39;;;;;;;11.10;9.90;;;;;;;12.62;40.55;104080.38;6055776;29;21086;-72
2023/02/07 13:03:17;;;;;;;14.90;9.70;;;;;;;12.88;40.90;104075.59;6044527;29;20237;-72
2023/02/07 13:06:51;;;;;;;14.67;11.37;;;;;;;13.16;40.04;104085.03;6038310;29;21916;-72
2023/02/07 13:10:24;;;;;;;17.53;11.00;;;;;;;12.31;41.94;104077.31;6051338;29;20639;-71
2023/02/07 13:13:55;;;;;;;16.67;11.03;;;;;;;13.08;40.35;104076.41;6058565;29;20858;-71
2023/02/07 13:17:33;;;;;;;11.97;9.40;;;;;;;11.34;43.30;104082.44;6056051;29;20236;-72
2023/02/07 13:21:09;;;;;;;12.53;10.13;;;;;;;11.94;43.31;104069.97;6062115;29;20233;-70
2023/02/07 13:24:33;;;;;;;10.40;8.67;;;;;;;12.61;42.49;104067.81;6068959;29;20240;-71
2023/02/07 13:27:57;;;;;;;11.67;9.47;;;;;;;12.19;43.14;104068.88;6065266;29;20517;-71
2023/02/07 13:31:20;;;;;;;15.23;9.77;;;;;;;11.00;45.67;104078.38;6059349;29;20230;-73
2023/02/07 13:34:48;;;;;;;11.33;7.87;;;;;;;12.48;48.08;104071.13;6075844;29;20233;-74
2023/02/07 13:38:17;;;;;;;13.87;10.40;;;;;;;11.87;44.34;104064.88;6065336;29;20241;-72
2023/02/07 13:41:49;;;;;;;14.03;9.90;;;;;;;11.72;43.95;104068.25;6066685;29;20256;-71
2023/02/07 13:45:19;;;;;;;15.63;9.97;;;;;;;12.11;43.80;104062.94;6031427;29;20229;-71
2023/02/07 13:48:44;;;;;;;14.00;9.67;;;;;;;10.22;46.83;104081.41;6060734;29;20240;-72
2023/02/07 13:52:11;;;;;;;13.87;9.57;;;;;;;10.37;47.44;104079.00;6032026;29;20234;-71
2023/02/07 13:55:36;;;;;;;12.93;10.00;;;;;;;11.18;45.99;104072.25;6065212;29;20233;-71
2023/02/07 14:02:40;;;;;;;14.43;10.80;;;;;;;12.46;42.87;104063.09;6058254;29;20241;-70
2023/02/07 14:06:17;;;;;;;11.10;9.67;;;;;;;11.68;44.57;104066.63;6067134;29;20238;-72
2023/02/07 14:09:41;;;;;;;13.60;9.40;;;;;;;11.27;45.86;104060.19;6069530;29;20241;-71
2023/02/07 14:13:03;;;;;;;12.67;8.40;;;;;;;10.58;46.74;104058.44;6056187;29;20240;-72
2023/02/07 14:16:48;;;;;;;12.23;9.93;;;;;;;10.39;47.93;104063.66;6047936;29;20237;-71
2023/02/07 14:20:50;;;;;;;13.63;9.30;;;;;;;10.64;47.29;104060.91;6047659;29;20222;-72
2023/02/07 14:24:31;;;;;;;13.53;9.63;;;;;;;11.28;45.88;104061.97;6060298;29;20246;-72
2023/02/07 14:28:17;;;;;;;13.10;9.80;;;;;;;11.18;45.86;104047.09;6070458;29;20237;-72
2023/02/07 14:31:47;;;;;;;12.90;9.73;;;;;;;12.18;43.50;104059.03;6049174;29;20238;-72
2023/02/07 14:35:30;;;;;;;12.43;9.87;;;;;;;12.37;43.29;104049.13;6050032;29;20317;-72
2023/02/07 14:39:07;;;;;;;11.27;8.03;;;;;;;12.74;42.62;104052.78;6065063;29;20441;-71
2023/02/07 14:42:28;;;;;;;8.67;7.37;;;;;;;12.93;41.70;104051.88;6050981;29;20236;-72
2023/02/07 14:46:03;;;;;;;11.27;7.17;;;;;;;11.24;45.34;104053.09;6050604;29;20238;-71
2023/02/07 14:49:32;;;;;;;7.23;6.60;;;;;;;10.67;46.53;104052.72;6063792;29;20225;-71
2023/02/07 14:52:55;;;;;;;9.10;7.50;;;;;;;9.57;49.49;104060.25;6066960;29;20331;-70
2023/02/07 14:56:28;;;;;;;9.93;8.30;;;;;;;9.03;51.83;104061.19;6056907;29;20242;-72
2023/02/07 14:59:59;;;;;;;9.80;7.33;;;;;;;9.21;51.41;104066.88;6028548;29;20242;-71
2023/02/07 15:03:21;;;;;;;11.70;7.67;;;;;;;8.85;51.95;104054.56;6063490;29;20229;-72
2023/02/07 15:06:46;;;;;;;10.73;7.87;;;;;;;8.73;52.39;104047.75;6050183;29;20242;-71
2023/02/07 15:10:14;;;;;;;7.97;7.17;;;;;;;8.46;53.37;104051.28;6057702;29;20288;-72
2023/02/07 15:13:39;;;;;;;8.93;7.00;;;;;;;8.27;54.15;104057.19;6065477;29;20228;-71
2023/02/07 15:17:00;;;;;;;10.83;7.23;;;;;;;8.44;54.26;104055.81;6042918;29;20616;-72
2023/02/07 15:20:27;;;;;;;12.17;7.30;;;;;;;8.48;53.49;104046.72;6074102;29;20221;-72
2023/02/07 15:23:54;;;;;;;18.40;8.47;;;;;;;8.44;53.50;104049.53;6070543;29;20228;-73
2023/02/07 15:27:19;;;;;;;9.43;5.87;;;;;;;8.44;53.50;104046.84;6050797;29;20233;-71
2023/02/07 15:30:54;;;;;;;13.23;8.30;;;;;;;8.17;54.30;104053.88;6070017;29;20237;-71
2023/02/07 15:34:17;;;;;;;10.77;6.47;;;;;;;8.26;53.49;104048.25;6073936;29;20229;-72
2023/02/07 15:37:38;;;;;;;11.50;7.90;;;;;;;8.38;53.25;104050.63;6044037;29;20237;-71
2023/02/07 15:40:59;;;;;;;8.50;6.10;;;;;;;8.23;54.06;104036.69;6057888;29;20616;-72
2023/02/07 15:44:22;;;;;;;10.97;7.10;;;;;;;8.06;53.46;104042.53;6069918;29;20237;-71
2023/02/07 15:47:44;;;;;;;12.40;7.00;;;;;;;8.16;53.02;104049.41;6061267;29;21554;-72
2023/02/07 15:51:05;;;;;;;10.00;6.80;;;;;;;8.20;54.04;104052.91;6057606;29;20257;-71
2023/02/07 15:54:26;;;;;;;8.77;5.80;;;;;;;8.05;53.41;104051.53;6066278;29;20237;-71
2023/02/07 15:57:48;;;;;;;7.40;6.60;;;;;;;8.01;54.46;104045.34;6054299;29;21161;-71
2023/02/07 16:01:15;;;;;;;12.77;8.57;;;;;;;7.93;54.08;104058.09;6063194;29;20242;-72
2023/02/07 16:04:38;;;;;;;8.60;6.63;;;;;;;7.89;55.56;104048.38;6072411;29;20241;-72